Currently 75°F in Perris, California, USA
75°F
76°F / 75°F
calm
0.00"
Sunday, August 1, 2021 12:28 AM PDT

Perris, California Weather Summary
Last 36 Hours

Temperature Winds Hourly Humidity Dewpoint
Time Report Norm Report Norm Max Gusts Precip. Rpt. Norm Rpt. Norm Pressure
1,3Sun 12:28 AM  75.0°F  71°F  calm  1 mph  none  0.00"  31%  64%  41°F  58°F  30.04"
2Sun 12:02 AM  76.1°F  72°F  calm  1 mph  none  ----  29%  63%  41°F  58°F  30.04"
Sun 12:00 AM  75.8°F  72°F  calm  1 mph  none  0.00"  29%  63%  40°F  58°F  30.04"
Sat 11:00 PM  77.1°F  73°F  calm  2 mph  none  0.00"  28%  59%  40°F  57°F  30.04"
Sat 10:00 PM  79.3°F  75°F  calm  2 mph  none  0.00"  25%  54%  39°F  57°F  30.06"
Sat 09:00 PM  82.3°F  78°F  calm  3 mph  none  0.00"  19%  49%  34°F  56°F  30.04"
Sat 08:00 PM  85.2°F  81°F  calm  4 mph  none  0.00"  13%  42%  26°F  55°F  30.01"
Sat 07:00 PM  88.2°F  85°F  calm  6 mph  none  0.00"  12%  35%  27°F  54°F  29.99"
Sat 06:00 PM  92.5°F  89°F  calm  6 mph  none  0.00"  14%  31%  34°F  54°F  29.98"
Sat 05:00 PM  94.7°F  91°F  calm  7 mph  none  0.00"  14%  30%  36°F  54°F  29.97"
Sat 04:00 PM  97.0°F  93°F  calm  7 mph  none  0.00"  13%  29%  37°F  55°F  29.97"
Sat 03:00 PM  99.6°F  94°F  calm  6 mph  none  0.00"  15%  28%  42°F  54°F  29.98"
Sat 02:00 PM  99.0°F  93°F  calm  6 mph  none  0.00"  15%  27%  41°F  53°F  29.99"
Sat 01:00 PM  98.7°F  92°F  calm  4 mph  none  0.00"  15%  28%  42°F  53°F  29.99"
Sat 12:00 PM  96.8°F  89°F  calm  4 mph  none  0.00"  17%  32%  43°F  54°F  30.01"
Sat 11:00 AM  93.1°F  85°F  calm  2 mph  none  0.00"  19%  38%  44°F  56°F  30.03"
Sat 10:00 AM  90.2°F  80°F  calm  2 mph  none  0.00"  24%  49%  47°F  59°F  30.05"
Sat 09:00 AM  84.0°F  76°F  calm  1 mph  none  0.00"  39%  61%  55°F  61°F  30.05"
Sat 08:00 AM  77.0°F  70°F  calm  1 mph  none  0.00"  51%  73%  57°F  61°F  30.04"
Sat 07:00 AM  71.4°F  66°F  calm  1 mph  none  0.00"  60%  78%  56°F  59°F  30.02"
Sat 06:00 AM  71.1°F  66°F  calm  1 mph  none  0.00"  61%  77%  57°F  59°F  30.01"
Sat 05:00 AM  72.2°F  67°F  calm  1 mph  none  0.00"  60%  75%  57°F  59°F  29.99"
Sat 04:00 AM  71.9°F  68°F  calm  1 mph  none  0.00"  60%  73%  57°F  59°F  30.00"
Sat 03:00 AM  73.4°F  69°F  calm  1 mph  none  0.00"  57%  71%  57°F  59°F  30.00"
Sat 02:00 AM  74.5°F  70°F  calm  1 mph  none  0.00"  55%  69%  57°F  59°F  30.00"
Sat 01:00 AM  75.3°F  71°F  calm  2 mph  none  0.00"  52%  66%  56°F  58°F  30.01"
Sat 12:00 AM  75.7°F  72°F  calm  1 mph  none  0.00"  50%  63%  55°F  58°F  30.00"
Fri 11:00 PM  77.6°F  73°F  calm  2 mph  none  0.00"  47%  59%  55°F  58°F  30.01"
Fri 10:00 PM  79.5°F  75°F  calm  2 mph  none  0.00"  43%  55%  54°F  57°F  30.02"
Fri 09:00 PM  82.3°F  78°F  calm  3 mph  none  0.00"  26%  49%  43°F  57°F  30.01"
Fri 08:00 PM  85.3°F  81°F  calm  4 mph  none  0.00"  20%  43%  38°F  56°F  29.99"
Fri 07:00 PM  88.5°F  85°F  calm  6 mph  none  0.00"  25%  36%  47°F  54°F  29.96"
Fri 06:00 PM  89.7°F  89°F  calm  6 mph  none  0.00"  30%  32%  53°F  54°F  29.95"
Fri 05:00 PM  90.8°F  92°F  calm  7 mph  none  0.00"  30%  30%  54°F  55°F  29.94"
Fri 04:00 PM  95.0°F  93°F  calm  7 mph  none  0.00"  18%  29%  44°F  55°F  29.91"
Fri 03:00 PM  99.0°F  94°F  calm  6 mph  none  0.00"  13%  28%  37°F  55°F  29.91"
Fri 02:00 PM  101.2°F  93°F  calm  6 mph  none  0.00"  11%  28%  34°F  54°F  29.92"
Fri 01:00 PM  99.2°F  91°F  calm  5 mph  none  0.00"  13%  29%  38°F  54°F  29.93"
Fri 12:00 PM  96.6°F  89°F  calm  4 mph  none  0.00"  15%  32%  40°F  55°F  29.93"

  1. Current weather data. No green row appears if the current weather data is also the high or low for the current day.
  2. High temperature for the current day.
  3. Low temperature for the current day.

The Perris, California weather pages are a service of WeatherCurrents. Perris is located in Southern California's Inland Empire, south of Riverside and north of Sun City, along the Interstate 215 freeway.
Copyright ©2021  WeatherCurrents. All rights reserved. - Submit questions and comments - Privacy Policy

This page automatically refreshes every 10 minutes.